sensor_id;sensor_type;location;lat;lon;timestamp;temperature;humidity
39021;DHT22;25188;51.958;5.842;2023-09-08T00:01:51;22.70;71.60
39021;DHT22;25188;51.958;5.842;2023-09-08T00:04:17;22.70;71.80
39021;DHT22;25188;51.958;5.842;2023-09-08T00:06:45;22.60;71.90
39021;DHT22;25188;51.958;5.842;2023-09-08T00:09:11;22.60;72.00
39021;DHT22;25188;51.958;5.842;2023-09-08T00:11:36;22.50;72.00
39021;DHT22;25188;51.958;5.842;2023-09-08T00:14:02;22.50;72.10
39021;DHT22;25188;51.958;5.842;2023-09-08T00:16:29;22.50;72.20
39021;DHT22;25188;51.958;5.842;2023-09-08T00:18:55;22.50;72.20
39021;DHT22;25188;51.958;5.842;2023-09-08T00:21:22;22.40;72.30
39021;DHT22;25188;51.958;5.842;2023-09-08T00:23:48;22.20;72.40
39021;DHT22;25188;51.958;5.842;2023-09-08T00:26:13;22.30;72.60
39021;DHT22;25188;51.958;5.842;2023-09-08T00:28:39;22.20;72.70
39021;DHT22;25188;51.958;5.842;2023-09-08T00:31:04;22.20;72.90
39021;DHT22;25188;51.958;5.842;2023-09-08T00:33:30;22.20;73.10
39021;DHT22;25188;51.958;5.842;2023-09-08T00:35:55;22.20;73.20
39021;DHT22;25188;51.958;5.842;2023-09-08T00:38:22;22.20;73.40
39021;DHT22;25188;51.958;5.842;2023-09-08T00:40:48;22.10;73.50
39021;DHT22;25188;51.958;5.842;2023-09-08T00:43:14;22.00;74.20
39021;DHT22;25188;51.958;5.842;2023-09-08T00:45:42;22.00;73.70
39021;DHT22;25188;51.958;5.842;2023-09-08T00:48:08;21.90;73.90
39021;DHT22;25188;51.958;5.842;2023-09-08T00:50:36;21.90;73.90
39021;DHT22;25188;51.958;5.842;2023-09-08T00:53:02;21.90;74.10
39021;DHT22;25188;51.958;5.842;2023-09-08T00:55:29;21.80;74.20
39021;DHT22;25188;51.958;5.842;2023-09-08T00:57:56;21.90;74.50
39021;DHT22;25188;51.958;5.842;2023-09-08T01:00:21;21.80;74.60
39021;DHT22;25188;51.958;5.842;2023-09-08T01:02:47;21.70;74.80
39021;DHT22;25188;51.958;5.842;2023-09-08T01:05:13;21.70;74.80
39021;DHT22;25188;51.958;5.842;2023-09-08T01:07:40;21.70;74.90
39021;DHT22;25188;51.958;5.842;2023-09-08T01:10:06;21.70;75.70
39021;DHT22;25188;51.958;5.842;2023-09-08T01:12:32;21.60;75.20
39021;DHT22;25188;51.958;5.842;2023-09-08T01:15:03;21.60;75.40
39021;DHT22;25188;51.958;5.842;2023-09-08T01:17:30;21.50;75.60
39021;DHT22;25188;51.958;5.842;2023-09-08T01:19:56;21.50;75.80
39021;DHT22;25188;51.958;5.842;2023-09-08T01:22:37;21.50;75.90
39021;DHT22;25188;51.958;5.842;2023-09-08T01:25:18;21.50;76.10
39021;DHT22;25188;51.958;5.842;2023-09-08T01:27:55;21.40;76.10
39021;DHT22;25188;51.958;5.842;2023-09-08T01:30:24;21.40;76.20
39021;DHT22;25188;51.958;5.842;2023-09-08T01:32:51;21.40;76.20
39021;DHT22;25188;51.958;5.842;2023-09-08T01:35:17;21.30;76.30
39021;DHT22;25188;51.958;5.842;2023-09-08T01:37:47;21.30;76.30
39021;DHT22;25188;51.958;5.842;2023-09-08T01:40:13;21.20;76.50
39021;DHT22;25188;51.958;5.842;2023-09-08T01:42:39;21.30;76.70
39021;DHT22;25188;51.958;5.842;2023-09-08T01:45:05;21.20;76.90
39021;DHT22;25188;51.958;5.842;2023-09-08T01:47:32;21.20;77.60
39021;DHT22;25188;51.958;5.842;2023-09-08T01:49:58;21.10;77.00
39021;DHT22;25188;51.958;5.842;2023-09-08T01:52:24;21.10;77.20
39021;DHT22;25188;51.958;5.842;2023-09-08T01:54:50;21.10;77.30
39021;DHT22;25188;51.958;5.842;2023-09-08T01:57:15;21.00;77.50
39021;DHT22;25188;51.958;5.842;2023-09-08T01:59:41;21.00;77.60
39021;DHT22;25188;51.958;5.842;2023-09-08T02:02:07;21.00;77.80
39021;DHT22;25188;51.958;5.842;2023-09-08T02:04:32;21.00;77.80
39021;DHT22;25188;51.958;5.842;2023-09-08T02:06:58;20.90;77.90
39021;DHT22;25188;51.958;5.842;2023-09-08T02:09:34;20.90;77.90
39021;DHT22;25188;51.958;5.842;2023-09-08T02:12:00;20.80;78.00
39021;DHT22;25188;51.958;5.842;2023-09-08T02:14:26;20.80;78.00
39021;DHT22;25188;51.958;5.842;2023-09-08T02:16:53;20.80;78.10
39021;DHT22;25188;51.958;5.842;2023-09-08T02:19:19;20.80;78.20
39021;DHT22;25188;51.958;5.842;2023-09-08T02:21:45;20.70;78.30
39021;DHT22;25188;51.958;5.842;2023-09-08T02:24:10;20.70;78.40
39021;DHT22;25188;51.958;5.842;2023-09-08T02:26:37;20.60;78.50
39021;DHT22;25188;51.958;5.842;2023-09-08T02:29:03;20.60;78.60
39021;DHT22;25188;51.958;5.842;2023-09-08T02:31:28;20.60;78.80
39021;DHT22;25188;51.958;5.842;2023-09-08T02:33:54;20.60;79.00
39021;DHT22;25188;51.958;5.842;2023-09-08T02:36:19;20.50;79.00
39021;DHT22;25188;51.958;5.842;2023-09-08T02:38:54;20.50;79.00
39021;DHT22;25188;51.958;5.842;2023-09-08T02:41:20;20.50;79.20
39021;DHT22;25188;51.958;5.842;2023-09-08T02:43:46;20.50;79.40
39021;DHT22;25188;51.958;5.842;2023-09-08T02:46:12;20.40;79.40
39021;DHT22;25188;51.958;5.842;2023-09-08T02:48:38;20.40;79.50
39021;DHT22;25188;51.958;5.842;2023-09-08T02:51:04;20.40;79.60
39021;DHT22;25188;51.958;5.842;2023-09-08T02:53:29;20.40;79.80
39021;DHT22;25188;51.958;5.842;2023-09-08T02:55:56;20.30;79.80
39021;DHT22;25188;51.958;5.842;2023-09-08T02:58:22;20.30;79.90
39021;DHT22;25188;51.958;5.842;2023-09-08T03:00:48;20.20;80.00
39021;DHT22;25188;51.958;5.842;2023-09-08T03:03:14;20.30;80.20
39021;DHT22;25188;51.958;5.842;2023-09-08T03:05:39;20.20;80.40
39021;DHT22;25188;51.958;5.842;2023-09-08T03:08:05;20.20;80.40
39021;DHT22;25188;51.958;5.842;2023-09-08T03:10:31;20.20;80.60
39021;DHT22;25188;51.958;5.842;2023-09-08T03:13:00;20.20;80.80
39021;DHT22;25188;51.958;5.842;2023-09-08T03:15:26;20.10;80.80
39021;DHT22;25188;51.958;5.842;2023-09-08T03:17:54;20.10;80.80
39021;DHT22;25188;51.958;5.842;2023-09-08T03:20:20;20.20;81.00
39021;DHT22;25188;51.958;5.842;2023-09-08T03:22:46;20.10;81.00
39021;DHT22;25188;51.958;5.842;2023-09-08T03:25:13;20.10;81.10
39021;DHT22;25188;51.958;5.842;2023-09-08T03:27:39;20.10;81.20
39021;DHT22;25188;51.958;5.842;2023-09-08T03:30:06;20.00;81.40
39021;DHT22;25188;51.958;5.842;2023-09-08T03:32:32;20.10;81.50
39021;DHT22;25188;51.958;5.842;2023-09-08T03:34:57;20.00;81.60
39021;DHT22;25188;51.958;5.842;2023-09-08T03:37:23;19.90;81.60
39021;DHT22;25188;51.958;5.842;2023-09-08T03:39:49;19.90;81.80
39021;DHT22;25188;51.958;5.842;2023-09-08T03:42:15;19.90;81.80
39021;DHT22;25188;51.958;5.842;2023-09-08T03:44:41;20.00;81.90
39021;DHT22;25188;51.958;5.842;2023-09-08T03:47:06;19.90;82.00
39021;DHT22;25188;51.958;5.842;2023-09-08T03:49:32;19.90;82.10
39021;DHT22;25188;51.958;5.842;2023-09-08T03:51:58;19.90;82.20
39021;DHT22;25188;51.958;5.842;2023-09-08T03:54:24;19.80;82.20
39021;DHT22;25188;51.958;5.842;2023-09-08T03:56:49;19.80;82.50
39021;DHT22;25188;51.958;5.842;2023-09-08T03:59:15;19.80;82.50
39021;DHT22;25188;51.958;5.842;2023-09-08T04:01:40;19.80;82.60
39021;DHT22;25188;51.958;5.842;2023-09-08T04:04:06;19.80;82.70
39021;DHT22;25188;51.958;5.842;2023-09-08T04:06:31;19.80;82.70
39021;DHT22;25188;51.958;5.842;2023-09-08T04:08:57;19.70;82.80
39021;DHT22;25188;51.958;5.842;2023-09-08T04:11:23;19.70;82.90
39021;DHT22;25188;51.958;5.842;2023-09-08T04:13:48;19.70;83.00
39021;DHT22;25188;51.958;5.842;2023-09-08T04:16:14;19.70;83.10
39021;DHT22;25188;51.958;5.842;2023-09-08T04:18:39;19.70;83.20
39021;DHT22;25188;51.958;5.842;2023-09-08T04:21:06;19.70;83.30
39021;DHT22;25188;51.958;5.842;2023-09-08T04:23:32;19.70;83.30
39021;DHT22;25188;51.958;5.842;2023-09-08T04:25:58;19.70;83.40
39021;DHT22;25188;51.958;5.842;2023-09-08T04:28:24;19.60;83.50
39021;DHT22;25188;51.958;5.842;2023-09-08T04:30:49;19.50;83.50
39021;DHT22;25188;51.958;5.842;2023-09-08T04:33:15;19.60;83.60
39021;DHT22;25188;51.958;5.842;2023-09-08T04:35:40;19.60;83.60
39021;DHT22;25188;51.958;5.842;2023-09-08T04:38:07;19.60;83.70
39021;DHT22;25188;51.958;5.842;2023-09-08T04:40:33;19.50;83.80
39021;DHT22;25188;51.958;5.842;2023-09-08T04:42:59;19.50;83.90
39021;DHT22;25188;51.958;5.842;2023-09-08T04:45:24;19.50;83.90
39021;DHT22;25188;51.958;5.842;2023-09-08T04:47:50;19.50;84.00
39021;DHT22;25188;51.958;5.842;2023-09-08T04:50:16;19.40;84.00
39021;DHT22;25188;51.958;5.842;2023-09-08T04:52:41;19.50;84.10
39021;DHT22;25188;51.958;5.842;2023-09-08T04:55:07;19.40;84.10
39021;DHT22;25188;51.958;5.842;2023-09-08T04:57:33;19.40;84.30
39021;DHT22;25188;51.958;5.842;2023-09-08T04:59:58;19.40;84.40
39021;DHT22;25188;51.958;5.842;2023-09-08T05:02:24;19.30;84.40
39021;DHT22;25188;51.958;5.842;2023-09-08T05:04:50;19.40;84.60
39021;DHT22;25188;51.958;5.842;2023-09-08T05:07:15;19.30;84.70
39021;DHT22;25188;51.958;5.842;2023-09-08T05:09:41;19.30;84.70
39021;DHT22;25188;51.958;5.842;2023-09-08T05:12:06;19.30;84.80
39021;DHT22;25188;51.958;5.842;2023-09-08T05:14:32;19.30;84.90
39021;DHT22;25188;51.958;5.842;2023-09-08T05:16:58;19.30;85.00
39021;DHT22;25188;51.958;5.842;2023-09-08T05:19:24;19.30;85.10
39021;DHT22;25188;51.958;5.842;2023-09-08T05:21:54;19.30;85.20
39021;DHT22;25188;51.958;5.842;2023-09-08T05:24:20;19.20;85.20
39021;DHT22;25188;51.958;5.842;2023-09-08T05:26:46;19.20;85.30
39021;DHT22;25188;51.958;5.842;2023-09-08T05:29:12;19.30;85.40
39021;DHT22;25188;51.958;5.842;2023-09-08T05:31:38;19.20;85.50
39021;DHT22;25188;51.958;5.842;2023-09-08T05:34:04;19.30;85.70
39021;DHT22;25188;51.958;5.842;2023-09-08T05:36:29;19.30;85.70
39021;DHT22;25188;51.958;5.842;2023-09-08T05:38:56;19.30;85.80
39021;DHT22;25188;51.958;5.842;2023-09-08T05:41:22;19.30;85.80
39021;DHT22;25188;51.958;5.842;2023-09-08T05:43:47;19.30;85.80
39021;DHT22;25188;51.958;5.842;2023-09-08T05:46:13;19.40;85.90
39021;DHT22;25188;51.958;5.842;2023-09-08T05:48:39;19.30;85.90
39021;DHT22;25188;51.958;5.842;2023-09-08T05:51:04;19.30;85.90
39021;DHT22;25188;51.958;5.842;2023-09-08T05:53:32;19.40;86.00
39021;DHT22;25188;51.958;5.842;2023-09-08T05:55:58;19.40;86.00
39021;DHT22;25188;51.958;5.842;2023-09-08T05:58:24;19.40;86.10
39021;DHT22;25188;51.958;5.842;2023-09-08T06:00:53;19.40;86.10
39021;DHT22;25188;51.958;5.842;2023-09-08T06:03:19;19.40;86.10
39021;DHT22;25188;51.958;5.842;2023-09-08T06:05:44;19.50;86.20
39021;DHT22;25188;51.958;5.842;2023-09-08T06:08:10;19.50;86.20
39021;DHT22;25188;51.958;5.842;2023-09-08T06:10:35;19.50;86.20
39021;DHT22;25188;51.958;5.842;2023-09-08T06:13:01;19.50;86.20
39021;DHT22;25188;51.958;5.842;2023-09-08T06:15:27;19.60;86.30
39021;DHT22;25188;51.958;5.842;2023-09-08T06:17:52;19.50;86.20
39021;DHT22;25188;51.958;5.842;2023-09-08T06:20:18;19.60;86.30
39021;DHT22;25188;51.958;5.842;2023-09-08T06:22:43;19.60;86.20
39021;DHT22;25188;51.958;5.842;2023-09-08T06:25:09;19.70;86.20
39021;DHT22;25188;51.958;5.842;2023-09-08T06:27:35;19.70;86.00
39021;DHT22;25188;51.958;5.842;2023-09-08T06:30:00;19.70;86.00
39021;DHT22;25188;51.958;5.842;2023-09-08T06:32:26;19.80;86.00
39021;DHT22;25188;51.958;5.842;2023-09-08T06:34:51;19.80;85.90
39021;DHT22;25188;51.958;5.842;2023-09-08T06:37:17;19.90;85.90
39021;DHT22;25188;51.958;5.842;2023-09-08T06:39:43;19.80;85.80
39021;DHT22;25188;51.958;5.842;2023-09-08T06:42:09;19.90;85.80
39021;DHT22;25188;51.958;5.842;2023-09-08T06:44:35;19.90;85.70
39021;DHT22;25188;51.958;5.842;2023-09-08T06:47:00;20.00;85.70
39021;DHT22;25188;51.958;5.842;2023-09-08T06:49:26;20.00;85.60
39021;DHT22;25188;51.958;5.842;2023-09-08T06:51:52;20.10;85.60
39021;DHT22;25188;51.958;5.842;2023-09-08T06:54:17;20.00;85.60
39021;DHT22;25188;51.958;5.842;2023-09-08T06:56:43;20.10;85.50
39021;DHT22;25188;51.958;5.842;2023-09-08T06:59:08;20.20;85.40
39021;DHT22;25188;51.958;5.842;2023-09-08T07:01:35;20.20;85.30
39021;DHT22;25188;51.958;5.842;2023-09-08T07:04:00;20.20;85.30
39021;DHT22;25188;51.958;5.842;2023-09-08T07:06:26;20.30;85.20
39021;DHT22;25188;51.958;5.842;2023-09-08T07:08:51;20.30;85.10
39021;DHT22;25188;51.958;5.842;2023-09-08T07:11:17;20.30;84.90
39021;DHT22;25188;51.958;5.842;2023-09-08T07:13:42;20.40;84.80
39021;DHT22;25188;51.958;5.842;2023-09-08T07:16:08;20.40;84.80
39021;DHT22;25188;51.958;5.842;2023-09-08T07:18:33;20.40;84.70
39021;DHT22;25188;51.958;5.842;2023-09-08T07:21:02;20.50;84.70
39021;DHT22;25188;51.958;5.842;2023-09-08T07:23:27;20.50;84.60
39021;DHT22;25188;51.958;5.842;2023-09-08T07:25:53;20.60;84.60
39021;DHT22;25188;51.958;5.842;2023-09-08T07:28:19;20.60;84.60
39021;DHT22;25188;51.958;5.842;2023-09-08T07:30:44;20.70;84.60
39021;DHT22;25188;51.958;5.842;2023-09-08T07:33:10;20.70;84.50
39021;DHT22;25188;51.958;5.842;2023-09-08T07:35:39;20.70;84.40
39021;DHT22;25188;51.958;5.842;2023-09-08T07:38:05;20.80;84.40
39021;DHT22;25188;51.958;5.842;2023-09-08T07:40:32;20.80;84.30
39021;DHT22;25188;51.958;5.842;2023-09-08T07:42:58;20.90;84.30
39021;DHT22;25188;51.958;5.842;2023-09-08T07:45:23;20.90;84.30
39021;DHT22;25188;51.958;5.842;2023-09-08T07:47:49;20.90;84.20
39021;DHT22;25188;51.958;5.842;2023-09-08T07:50:23;20.90;84.40
39021;DHT22;25188;51.958;5.842;2023-09-08T07:52:50;21.00;84.30
39021;DHT22;25188;51.958;5.842;2023-09-08T07:55:16;21.00;84.20
39021;DHT22;25188;51.958;5.842;2023-09-08T07:57:43;21.20;84.30
39021;DHT22;25188;51.958;5.842;2023-09-08T08:00:09;21.20;84.20
39021;DHT22;25188;51.958;5.842;2023-09-08T08:02:46;21.20;84.20
39021;DHT22;25188;51.958;5.842;2023-09-08T08:05:12;21.30;84.20
39021;DHT22;25188;51.958;5.842;2023-09-08T08:07:39;21.40;84.20
39021;DHT22;25188;51.958;5.842;2023-09-08T08:10:06;21.40;84.10
39021;DHT22;25188;51.958;5.842;2023-09-08T08:12:32;21.40;84.00
39021;DHT22;25188;51.958;5.842;2023-09-08T08:14:58;21.50;83.90
39021;DHT22;25188;51.958;5.842;2023-09-08T08:17:26;21.60;83.70
39021;DHT22;25188;51.958;5.842;2023-09-08T08:19:54;21.60;83.50
39021;DHT22;25188;51.958;5.842;2023-09-08T08:22:19;21.70;83.40
39021;DHT22;25188;51.958;5.842;2023-09-08T08:24:45;21.80;83.40
39021;DHT22;25188;51.958;5.842;2023-09-08T08:27:11;21.90;83.20
39021;DHT22;25188;51.958;5.842;2023-09-08T08:29:36;21.90;83.10
39021;DHT22;25188;51.958;5.842;2023-09-08T08:32:02;22.10;83.00
39021;DHT22;25188;51.958;5.842;2023-09-08T08:34:28;22.10;83.00
39021;DHT22;25188;51.958;5.842;2023-09-08T08:36:53;22.10;82.60
39021;DHT22;25188;51.958;5.842;2023-09-08T08:39:19;22.20;82.60
39021;DHT22;25188;51.958;5.842;2023-09-08T08:41:45;22.30;82.60
39021;DHT22;25188;51.958;5.842;2023-09-08T08:44:10;22.30;82.40
39021;DHT22;25188;51.958;5.842;2023-09-08T08:46:37;22.40;82.20
39021;DHT22;25188;51.958;5.842;2023-09-08T08:49:04;22.50;82.00
39021;DHT22;25188;51.958;5.842;2023-09-08T08:51:32;22.50;81.60
39021;DHT22;25188;51.958;5.842;2023-09-08T08:54:01;22.60;81.50
39021;DHT22;25188;51.958;5.842;2023-09-08T08:56:30;22.70;82.00
39021;DHT22;25188;51.958;5.842;2023-09-08T08:58:57;22.80;81.40
39021;DHT22;25188;51.958;5.842;2023-09-08T09:01:24;22.80;81.30
39021;DHT22;25188;51.958;5.842;2023-09-08T09:03:51;22.90;81.10
39021;DHT22;25188;51.958;5.842;2023-09-08T09:06:17;23.00;81.00
39021;DHT22;25188;51.958;5.842;2023-09-08T09:08:44;23.10;80.70
39021;DHT22;25188;51.958;5.842;2023-09-08T09:11:11;23.20;80.60
39021;DHT22;25188;51.958;5.842;2023-09-08T09:13:37;23.30;80.40
39021;DHT22;25188;51.958;5.842;2023-09-08T09:16:03;23.40;80.30
39021;DHT22;25188;51.958;5.842;2023-09-08T09:18:32;23.40;80.20
39021;DHT22;25188;51.958;5.842;2023-09-08T09:21:01;23.50;80.40
39021;DHT22;25188;51.958;5.842;2023-09-08T09:23:32;23.60;80.30
39021;DHT22;25188;51.958;5.842;2023-09-08T09:25:58;23.70;80.00
39021;DHT22;25188;51.958;5.842;2023-09-08T09:28:25;23.80;79.80
39021;DHT22;25188;51.958;5.842;2023-09-08T09:30:52;23.90;79.50
39021;DHT22;25188;51.958;5.842;2023-09-08T09:33:20;23.90;79.10
39021;DHT22;25188;51.958;5.842;2023-09-08T09:35:53;24.00;79.00
39021;DHT22;25188;51.958;5.842;2023-09-08T09:38:20;24.10;78.90
39021;DHT22;25188;51.958;5.842;2023-09-08T09:40:47;24.10;78.80
39021;DHT22;25188;51.958;5.842;2023-09-08T09:43:14;24.20;78.60
39021;DHT22;25188;51.958;5.842;2023-09-08T09:45:40;24.20;78.50
39021;DHT22;25188;51.958;5.842;2023-09-08T09:48:08;24.30;78.40
39021;DHT22;25188;51.958;5.842;2023-09-08T09:50:43;24.40;78.40
39021;DHT22;25188;51.958;5.842;2023-09-08T09:53:15;24.50;78.30
39021;DHT22;25188;51.958;5.842;2023-09-08T09:55:45;24.60;78.10
39021;DHT22;25188;51.958;5.842;2023-09-08T09:58:11;24.60;78.00
39021;DHT22;25188;51.958;5.842;2023-09-08T10:00:37;24.70;77.90
39021;DHT22;25188;51.958;5.842;2023-09-08T10:03:06;24.80;77.90
39021;DHT22;25188;51.958;5.842;2023-09-08T10:05:32;25.00;77.60
39021;DHT22;25188;51.958;5.842;2023-09-08T10:07:58;25.20;77.30
39021;DHT22;25188;51.958;5.842;2023-09-08T10:10:26;25.40;77.00
39021;DHT22;25188;51.958;5.842;2023-09-08T10:12:53;25.90;76.70
39021;DHT22;25188;51.958;5.842;2023-09-08T10:15:23;26.30;76.40
39021;DHT22;25188;51.958;5.842;2023-09-08T10:17:56;26.80;76.20
39021;DHT22;25188;51.958;5.842;2023-09-08T10:20:26;27.40;76.10
39021;DHT22;25188;51.958;5.842;2023-09-08T10:23:06;28.10;75.30
39021;DHT22;25188;51.958;5.842;2023-09-08T10:25:36;28.90;74.40
39021;DHT22;25188;51.958;5.842;2023-09-08T10:28:03;29.40;73.80
39021;DHT22;25188;51.958;5.842;2023-09-08T10:30:30;29.60;72.60
39021;DHT22;25188;51.958;5.842;2023-09-08T10:32:56;29.80;71.40
39021;DHT22;25188;51.958;5.842;2023-09-08T10:35:22;29.90;70.00
39021;DHT22;25188;51.958;5.842;2023-09-08T10:37:48;30.10;68.80
39021;DHT22;25188;51.958;5.842;2023-09-08T10:40:21;30.20;67.90
39021;DHT22;25188;51.958;5.842;2023-09-08T10:42:47;30.30;66.80
39021;DHT22;25188;51.958;5.842;2023-09-08T10:45:18;30.40;66.20
39021;DHT22;25188;51.958;5.842;2023-09-08T10:50:22;30.70;65.00
39021;DHT22;25188;51.958;5.842;2023-09-08T10:53:14;30.70;64.40
39021;DHT22;25188;51.958;5.842;2023-09-08T10:55:41;30.80;63.60
39021;DHT22;25188;51.958;5.842;2023-09-08T10:58:33;30.90;63.70
39021;DHT22;25188;51.958;5.842;2023-09-08T11:01:00;31.10;63.10
39021;DHT22;25188;51.958;5.842;2023-09-08T11:03:43;31.20;63.10
39021;DHT22;25188;51.958;5.842;2023-09-08T11:06:09;31.40;61.90
39021;DHT22;25188;51.958;5.842;2023-09-08T11:08:44;31.50;61.80
39021;DHT22;25188;51.958;5.842;2023-09-08T11:11:13;31.70;61.30
39021;DHT22;25188;51.958;5.842;2023-09-08T11:13:39;31.90;61.10
39021;DHT22;25188;51.958;5.842;2023-09-08T11:16:06;32.10;60.90
39021;DHT22;25188;51.958;5.842;2023-09-08T11:18:33;32.20;60.60
39021;DHT22;25188;51.958;5.842;2023-09-08T11:21:00;32.40;60.30
39021;DHT22;25188;51.958;5.842;2023-09-08T11:23:27;32.60;59.80
39021;DHT22;25188;51.958;5.842;2023-09-08T11:25:53;32.70;59.40
39021;DHT22;25188;51.958;5.842;2023-09-08T11:28:21;32.90;59.30
39021;DHT22;25188;51.958;5.842;2023-09-08T11:30:47;33.00;58.80
39021;DHT22;25188;51.958;5.842;2023-09-08T11:33:17;33.20;58.60
39021;DHT22;25188;51.958;5.842;2023-09-08T11:35:45;33.50;58.30
39021;DHT22;25188;51.958;5.842;2023-09-08T11:38:11;33.70;57.90
39021;DHT22;25188;51.958;5.842;2023-09-08T11:40:38;33.80;57.50
39021;DHT22;25188;51.958;5.842;2023-09-08T11:43:05;34.00;57.10
39021;DHT22;25188;51.958;5.842;2023-09-08T11:45:34;34.20;56.90
39021;DHT22;25188;51.958;5.842;2023-09-08T11:48:00;34.40;56.70
39021;DHT22;25188;51.958;5.842;2023-09-08T11:50:26;34.50;56.40
39021;DHT22;25188;51.958;5.842;2023-09-08T11:52:53;34.80;56.20
39021;DHT22;25188;51.958;5.842;2023-09-08T11:55:20;35.00;55.90
39021;DHT22;25188;51.958;5.842;2023-09-08T11:57:48;35.20;55.50
39021;DHT22;25188;51.958;5.842;2023-09-08T12:00:16;35.40;55.10
39021;DHT22;25188;51.958;5.842;2023-09-08T12:02:44;35.60;54.80
39021;DHT22;25188;51.958;5.842;2023-09-08T12:05:21;35.80;54.40
39021;DHT22;25188;51.958;5.842;2023-09-08T12:07:49;36.00;53.80
39021;DHT22;25188;51.958;5.842;2023-09-08T12:10:15;36.20;53.60
39021;DHT22;25188;51.958;5.842;2023-09-08T12:12:48;36.40;53.20
39021;DHT22;25188;51.958;5.842;2023-09-08T12:15:39;36.60;52.80
39021;DHT22;25188;51.958;5.842;2023-09-08T12:18:06;36.80;52.20
39021;DHT22;25188;51.958;5.842;2023-09-08T12:20:33;37.00;52.10
39021;DHT22;25188;51.958;5.842;2023-09-08T12:23:03;37.10;51.70
39021;DHT22;25188;51.958;5.842;2023-09-08T12:25:29;37.20;51.30
39021;DHT22;25188;51.958;5.842;2023-09-08T12:27:59;37.50;51.20
39021;DHT22;25188;51.958;5.842;2023-09-08T12:30:26;37.70;50.80
39021;DHT22;25188;51.958;5.842;2023-09-08T12:32:56;37.80;51.20
39021;DHT22;25188;51.958;5.842;2023-09-08T12:35:23;37.90;50.40
39021;DHT22;25188;51.958;5.842;2023-09-08T12:40:26;38.30;49.30
39021;DHT22;25188;51.958;5.842;2023-09-08T12:42:52;38.60;49.20
39021;DHT22;25188;51.958;5.842;2023-09-08T12:45:20;38.70;48.70
39021;DHT22;25188;51.958;5.842;2023-09-08T12:47:45;38.80;48.40
39021;DHT22;25188;51.958;5.842;2023-09-08T12:50:11;38.90;48.20
39021;DHT22;25188;51.958;5.842;2023-09-08T12:52:38;39.10;47.90
39021;DHT22;25188;51.958;5.842;2023-09-08T12:55:04;39.30;47.70
39021;DHT22;25188;51.958;5.842;2023-09-08T12:57:30;39.40;47.30
39021;DHT22;25188;51.958;5.842;2023-09-08T12:59:56;39.60;47.10
39021;DHT22;25188;51.958;5.842;2023-09-08T13:02:21;39.80;46.90
39021;DHT22;25188;51.958;5.842;2023-09-08T13:04:47;39.80;46.70
39021;DHT22;25188;51.958;5.842;2023-09-08T13:07:17;40.00;46.60
39021;DHT22;25188;51.958;5.842;2023-09-08T13:09:43;40.20;46.40
39021;DHT22;25188;51.958;5.842;2023-09-08T13:12:09;40.30;46.10
39021;DHT22;25188;51.958;5.842;2023-09-08T13:14:36;40.40;45.70
39021;DHT22;25188;51.958;5.842;2023-09-08T13:17:02;40.60;45.50
39021;DHT22;25188;51.958;5.842;2023-09-08T13:19:28;40.70;45.20
39021;DHT22;25188;51.958;5.842;2023-09-08T13:21:54;40.80;45.00
39021;DHT22;25188;51.958;5.842;2023-09-08T13:24:20;40.80;44.90
39021;DHT22;25188;51.958;5.842;2023-09-08T13:26:47;40.90;44.90
39021;DHT22;25188;51.958;5.842;2023-09-08T13:29:13;41.00;44.90
39021;DHT22;25188;51.958;5.842;2023-09-08T13:31:38;41.10;44.80
39021;DHT22;25188;51.958;5.842;2023-09-08T13:34:04;41.20;44.50
39021;DHT22;25188;51.958;5.842;2023-09-08T13:36:30;41.20;44.20
39021;DHT22;25188;51.958;5.842;2023-09-08T13:38:56;41.40;44.20
39021;DHT22;25188;51.958;5.842;2023-09-08T13:41:22;41.60;44.00
39021;DHT22;25188;51.958;5.842;2023-09-08T13:43:47;41.70;43.50
39021;DHT22;25188;51.958;5.842;2023-09-08T13:46:13;41.80;43.30
39021;DHT22;25188;51.958;5.842;2023-09-08T13:48:39;41.90;43.00
39021;DHT22;25188;51.958;5.842;2023-09-08T13:51:04;42.00;42.80
39021;DHT22;25188;51.958;5.842;2023-09-08T13:53:30;42.10;42.60
39021;DHT22;25188;51.958;5.842;2023-09-08T13:55:56;42.20;42.30
39021;DHT22;25188;51.958;5.842;2023-09-08T13:58:22;42.30;42.20
39021;DHT22;25188;51.958;5.842;2023-09-08T14:00:47;42.40;41.90
39021;DHT22;25188;51.958;5.842;2023-09-08T14:03:17;42.50;42.00
39021;DHT22;25188;51.958;5.842;2023-09-08T14:05:44;42.50;41.90
39021;DHT22;25188;51.958;5.842;2023-09-08T14:08:09;42.60;41.60
39021;DHT22;25188;51.958;5.842;2023-09-08T14:10:35;42.60;41.40
39021;DHT22;25188;51.958;5.842;2023-09-08T14:13:01;42.80;41.40
39021;DHT22;25188;51.958;5.842;2023-09-08T14:15:27;42.90;41.30
39021;DHT22;25188;51.958;5.842;2023-09-08T14:17:52;43.00;41.30
39021;DHT22;25188;51.958;5.842;2023-09-08T14:20:18;43.10;41.00
39021;DHT22;25188;51.958;5.842;2023-09-08T14:22:44;43.10;40.80
39021;DHT22;25188;51.958;5.842;2023-09-08T14:25:10;43.20;40.80
39021;DHT22;25188;51.958;5.842;2023-09-08T14:27:35;43.30;40.60
39021;DHT22;25188;51.958;5.842;2023-09-08T14:30:05;43.30;40.50
39021;DHT22;25188;51.958;5.842;2023-09-08T14:32:31;43.40;40.30
39021;DHT22;25188;51.958;5.842;2023-09-08T14:34:57;43.50;40.20
39021;DHT22;25188;51.958;5.842;2023-09-08T14:37:22;43.60;40.20
39021;DHT22;25188;51.958;5.842;2023-09-08T14:39:48;43.70;40.20
39021;DHT22;25188;51.958;5.842;2023-09-08T14:42:14;43.70;40.30
39021;DHT22;25188;51.958;5.842;2023-09-08T14:44:41;43.70;40.30
39021;DHT22;25188;51.958;5.842;2023-09-08T14:47:06;43.70;40.10
39021;DHT22;25188;51.958;5.842;2023-09-08T14:49:32;43.70;40.00
39021;DHT22;25188;51.958;5.842;2023-09-08T14:51:57;43.60;39.90
39021;DHT22;25188;51.958;5.842;2023-09-08T14:54:23;43.70;40.10
39021;DHT22;25188;51.958;5.842;2023-09-08T14:56:49;43.80;40.50
39021;DHT22;25188;51.958;5.842;2023-09-08T14:59:15;43.80;40.60
39021;DHT22;25188;51.958;5.842;2023-09-08T15:01:41;44.00;40.50
39021;DHT22;25188;51.958;5.842;2023-09-08T15:04:08;44.00;40.30
39021;DHT22;25188;51.958;5.842;2023-09-08T15:06:34;44.10;40.00
39021;DHT22;25188;51.958;5.842;2023-09-08T15:08:59;44.10;39.80
39021;DHT22;25188;51.958;5.842;2023-09-08T15:11:25;44.20;39.70
39021;DHT22;25188;51.958;5.842;2023-09-08T15:13:51;44.20;39.70
39021;DHT22;25188;51.958;5.842;2023-09-08T15:16:17;44.30;39.80
39021;DHT22;25188;51.958;5.842;2023-09-08T15:18:42;44.30;39.50
39021;DHT22;25188;51.958;5.842;2023-09-08T15:21:08;44.30;39.40
39021;DHT22;25188;51.958;5.842;2023-09-08T15:23:34;44.30;39.30
39021;DHT22;25188;51.958;5.842;2023-09-08T15:26:00;44.20;39.30
39021;DHT22;25188;51.958;5.842;2023-09-08T15:28:26;44.10;39.40
39021;DHT22;25188;51.958;5.842;2023-09-08T15:30:54;44.00;39.50
39021;DHT22;25188;51.958;5.842;2023-09-08T15:33:19;43.90;39.50